createdAt,value
2018-05-03T00:01:40.624Z,11.00
2018-05-03T00:04:08.217Z,11.00
2018-05-03T00:06:35.812Z,11.10
2018-05-03T00:09:03.438Z,11.10
2018-05-03T00:11:30.998Z,11.00
2018-05-03T00:13:58.589Z,10.90
2018-05-03T00:16:26.155Z,10.90
2018-05-03T00:18:53.742Z,10.90
2018-05-03T00:21:21.307Z,10.80
2018-05-03T00:23:48.890Z,10.80
2018-05-03T00:26:16.470Z,10.70
2018-05-03T00:28:44.034Z,10.70
2018-05-03T00:31:11.634Z,10.80
2018-05-03T00:33:39.214Z,10.80
2018-05-03T00:36:06.822Z,10.70
2018-05-03T00:38:34.405Z,10.80
2018-05-03T00:41:02.606Z,10.90
2018-05-03T00:43:30.169Z,11.00
2018-05-03T00:45:57.746Z,10.90
2018-05-03T00:48:25.302Z,10.80
2018-05-03T00:50:52.886Z,10.90
2018-05-03T00:53:20.442Z,10.80
2018-05-03T00:55:48.862Z,10.80
2018-05-03T00:58:16.527Z,10.70
2018-05-03T01:00:44.124Z,10.70
2018-05-03T01:03:13.219Z,10.60
2018-05-03T01:05:40.815Z,10.60
2018-05-03T01:08:08.404Z,10.60
2018-05-03T01:10:36.763Z,10.50
2018-05-03T01:13:04.397Z,10.50
2018-05-03T01:15:31.963Z,10.60
2018-05-03T01:18:00.314Z,10.50
2018-05-03T01:20:27.874Z,10.50
2018-05-03T01:22:55.459Z,10.40
2018-05-03T01:25:23.022Z,10.40
2018-05-03T01:27:50.601Z,10.20
2018-05-03T01:30:18.162Z,10.20
2018-05-03T01:32:45.751Z,10.10
2018-05-03T01:35:25.337Z,10.20
2018-05-03T01:37:53.685Z,10.30
2018-05-03T01:40:21.241Z,10.20
2018-05-03T01:42:48.822Z,10.20
2018-05-03T01:45:16.383Z,10.20
2018-05-03T01:47:43.982Z,10.20
2018-05-03T01:50:11.555Z,10.00
2018-05-03T01:52:39.822Z,9.90
2018-05-03T01:55:07.424Z,9.90
2018-05-03T01:57:35.050Z,9.90
2018-05-03T02:00:02.622Z,10.00
2018-05-03T02:02:30.177Z,10.20
2018-05-03T02:04:57.760Z,10.50
2018-05-03T02:07:25.327Z,10.80
2018-05-03T02:09:52.913Z,10.70
2018-05-03T02:12:20.483Z,10.40
2018-05-03T02:14:48.061Z,10.20
2018-05-03T02:17:15.634Z,10.00
2018-05-03T02:19:44.048Z,10.00
2018-05-03T02:22:11.629Z,10.10
2018-05-03T02:24:39.234Z,10.50
2018-05-03T02:27:07.453Z,10.90
2018-05-03T02:29:35.040Z,11.10
2018-05-03T02:32:02.672Z,11.10
2018-05-03T02:34:31.022Z,11.40
2018-05-03T02:36:59.353Z,11.70
2018-05-03T02:39:27.707Z,11.70
2018-05-03T02:41:55.278Z,11.70
2018-05-03T02:44:22.894Z,11.20
2018-05-03T02:46:51.222Z,10.90
2018-05-03T02:49:18.777Z,10.80
2018-05-03T02:51:46.358Z,10.70
2018-05-03T02:54:13.940Z,10.30
2018-05-03T02:56:41.530Z,10.20
2018-05-03T02:59:22.032Z,10.20
2018-05-03T03:01:57.691Z,10.00
2018-05-03T03:04:44.312Z,10.00
2018-05-03T03:14:21.305Z,9.90
2018-05-03T03:17:06.397Z,10.20
2018-05-03T03:20:02.230Z,10.50
2018-05-03T03:22:47.525Z,10.40
2018-05-03T03:28:54.057Z,10.00
2018-05-03T03:31:39.454Z,10.00
2018-05-03T03:34:16.880Z,10.20
2018-05-03T03:40:03.221Z,10.30
2018-05-03T03:45:45.346Z,10.10
2018-05-03T03:48:12.914Z,10.00
2018-05-03T03:50:40.515Z,10.00
2018-05-03T03:53:08.088Z,9.90
2018-05-03T03:55:36.426Z,9.80
2018-05-03T03:58:04.777Z,9.80
2018-05-03T04:00:32.357Z,9.80
2018-05-03T04:02:59.957Z,9.90
2018-05-03T04:05:27.555Z,9.90
2018-05-03T04:07:55.138Z,9.80
2018-05-03T04:10:22.745Z,9.90
2018-05-03T04:12:50.308Z,9.90
2018-05-03T04:15:17.897Z,9.80
2018-05-03T04:17:57.273Z,9.70
2018-05-03T04:20:40.348Z,9.70
2018-05-03T04:26:11.636Z,9.70
2018-05-03T04:28:39.185Z,9.80
2018-05-03T04:31:07.525Z,10.00
2018-05-03T04:33:35.080Z,10.00
2018-05-03T04:36:02.654Z,10.20
2018-05-03T04:38:30.251Z,10.20
2018-05-03T04:40:57.829Z,10.20
2018-05-03T04:43:25.460Z,10.30
2018-05-03T04:45:53.068Z,10.30
2018-05-03T04:48:21.430Z,10.30
2018-05-03T04:50:49.096Z,10.30
2018-05-03T04:53:17.933Z,10.40
2018-05-03T04:55:45.507Z,10.50
2018-05-03T04:58:13.082Z,10.40
2018-05-03T05:00:40.646Z,10.40
2018-05-03T05:03:08.222Z,10.40
2018-05-03T05:05:35.861Z,10.50
2018-05-03T05:08:03.446Z,10.40
2018-05-03T05:10:31.039Z,10.50
2018-05-03T05:12:58.630Z,10.50
2018-05-03T05:15:26.202Z,10.60
2018-05-03T05:17:53.904Z,10.70
2018-05-03T05:20:21.471Z,10.70
2018-05-03T05:22:49.805Z,10.60
2018-05-03T05:25:17.393Z,10.60
2018-05-03T05:27:44.954Z,10.70
2018-05-03T05:30:12.534Z,10.70
2018-05-03T05:32:40.248Z,10.70
2018-05-03T05:35:07.866Z,10.70
2018-05-03T05:37:36.219Z,10.60
2018-05-03T05:40:03.881Z,10.60
2018-05-03T05:42:32.326Z,10.80
2018-05-03T05:44:59.905Z,10.80
2018-05-03T05:47:27.461Z,10.80
2018-05-03T05:49:55.038Z,10.90
2018-05-03T05:52:22.599Z,10.80
2018-05-03T05:54:50.181Z,10.90
2018-05-03T05:57:17.742Z,11.00
2018-05-03T05:59:45.333Z,11.20
2018-05-03T06:02:12.895Z,11.30
2018-05-03T06:04:40.473Z,11.30
2018-05-03T06:07:08.066Z,11.30
2018-05-03T06:09:35.688Z,11.50
2018-05-03T06:12:03.753Z,11.50
2018-05-03T06:14:32.182Z,11.50
2018-05-03T06:16:59.785Z,11.50
2018-05-03T06:19:27.342Z,11.60
2018-05-03T06:21:54.927Z,11.60
2018-05-03T06:24:22.542Z,11.50
2018-05-03T06:26:51.101Z,11.50
2018-05-03T06:29:18.718Z,11.50
2018-05-03T06:31:47.076Z,11.40
2018-05-03T06:34:14.646Z,11.40
2018-05-03T06:36:42.238Z,11.50
2018-05-03T06:39:10.577Z,11.50
2018-05-03T06:41:38.233Z,11.60
2018-05-03T06:44:05.809Z,11.60
2018-05-03T06:46:33.397Z,11.60
2018-05-03T06:49:01.812Z,11.70
2018-05-03T06:51:29.438Z,11.70
2018-05-03T06:53:56.985Z,11.80
2018-05-03T06:56:26.808Z,11.90
2018-05-03T06:58:55.159Z,12.00
2018-05-03T07:01:22.721Z,12.00
2018-05-03T07:03:50.320Z,12.10
2018-05-03T07:06:17.900Z,12.10
2018-05-03T07:08:45.581Z,12.00
2018-05-03T07:11:13.267Z,12.00
2018-05-03T07:13:41.624Z,12.00
2018-05-03T07:16:09.195Z,12.00
2018-05-03T07:18:37.549Z,12.00
2018-05-03T07:21:05.110Z,12.00
2018-05-03T07:23:33.471Z,11.90
2018-05-03T07:26:01.814Z,12.00
2018-05-03T07:28:29.418Z,12.00
2018-05-03T07:30:56.982Z,12.10
2018-05-03T07:33:24.541Z,12.00
2018-05-03T07:35:52.121Z,12.00
2018-05-03T07:38:19.694Z,12.20
2018-05-03T07:40:47.384Z,12.30
2018-05-03T07:43:15.682Z,12.40
2018-05-03T07:45:43.271Z,12.40
2018-05-03T07:48:11.603Z,12.60
2018-05-03T07:50:39.209Z,12.60
2018-05-03T07:53:07.430Z,12.70
2018-05-03T07:55:35.786Z,12.90
2018-05-03T07:58:03.350Z,12.90
2018-05-03T08:00:30.938Z,13.10
2018-05-03T08:02:58.504Z,13.00
2018-05-03T08:05:26.098Z,13.10
2018-05-03T08:07:54.429Z,13.10
2018-05-03T08:10:22.023Z,13.10
2018-05-03T08:12:49.601Z,13.10
2018-05-03T08:15:17.976Z,13.10
2018-05-03T08:17:45.561Z,13.10
2018-05-03T08:20:13.182Z,13.00
2018-05-03T08:22:40.751Z,12.80
2018-05-03T08:25:09.101Z,12.80
2018-05-03T08:27:36.746Z,12.80
2018-05-03T08:30:04.338Z,12.90
2018-05-03T08:32:31.905Z,12.80
2018-05-03T08:34:59.510Z,12.80
2018-05-03T08:37:27.073Z,12.80
2018-05-03T08:39:54.641Z,12.80
2018-05-03T08:42:23.448Z,12.80
2018-05-03T08:44:51.178Z,12.90
2018-05-03T08:47:18.766Z,12.90
2018-05-03T08:49:46.354Z,13.00
2018-05-03T08:52:13.946Z,13.00
2018-05-03T08:54:41.524Z,13.20
2018-05-03T08:57:09.117Z,13.20
2018-05-03T08:59:37.455Z,13.30
2018-05-03T09:02:05.046Z,13.20
2018-05-03T09:04:32.637Z,13.20
2018-05-03T09:07:01.020Z,13.30
2018-05-03T09:09:28.594Z,13.30
2018-05-03T09:11:56.170Z,13.10
2018-05-03T09:14:23.785Z,13.20
2018-05-03T09:16:51.363Z,13.10
2018-05-03T09:19:18.959Z,13.20
2018-05-03T09:21:47.299Z,13.20
2018-05-03T09:24:14.885Z,13.20
2018-05-03T09:26:42.453Z,13.10
2018-05-03T09:29:10.039Z,13.10
2018-05-03T09:31:37.610Z,13.10
2018-05-03T09:34:05.192Z,13.10
2018-05-03T09:36:32.761Z,13.20
2018-05-03T09:39:00.370Z,13.20
2018-05-03T09:41:27.947Z,13.30
2018-05-03T09:43:55.570Z,13.40
2018-05-03T09:46:23.158Z,13.50
2018-05-03T09:48:50.866Z,13.50
2018-05-03T09:51:18.462Z,13.40
2018-05-03T09:53:46.828Z,13.60
2018-05-03T09:56:14.482Z,13.60
2018-05-03T09:58:42.284Z,13.70
2018-05-03T10:01:09.875Z,13.90
2018-05-03T10:03:38.208Z,14.30
2018-05-03T10:06:05.796Z,14.30
2018-05-03T10:08:33.381Z,14.40
2018-05-03T10:11:00.966Z,14.30
2018-05-03T10:13:28.536Z,14.50
2018-05-03T10:15:56.121Z,14.50
2018-05-03T10:18:24.469Z,14.50
2018-05-03T10:20:52.070Z,14.50
2018-05-03T10:23:19.649Z,14.40
2018-05-03T10:25:48.019Z,15.00
2018-05-03T10:28:15.736Z,15.10
2018-05-03T10:30:44.109Z,15.50
2018-05-03T10:33:12.457Z,15.80
2018-05-03T10:35:40.226Z,15.80
2018-05-03T10:38:07.750Z,15.80
2018-05-03T10:40:35.318Z,15.90
2018-05-03T10:43:02.970Z,16.00
2018-05-03T10:45:30.560Z,16.10
2018-05-03T10:47:58.942Z,16.10
2018-05-03T10:50:26.610Z,16.10
2018-05-03T10:52:54.201Z,15.90
2018-05-03T10:55:21.783Z,15.70
2018-05-03T10:57:50.134Z,16.00
2018-05-03T11:00:17.725Z,16.00
2018-05-03T11:02:45.321Z,16.10
2018-05-03T11:05:13.701Z,15.90
2018-05-03T11:07:41.319Z,15.90
2018-05-03T11:10:08.886Z,16.00
2018-05-03T11:12:36.466Z,15.90
2018-05-03T11:15:04.021Z,15.90
2018-05-03T11:17:31.629Z,16.20
2018-05-03T11:19:59.201Z,16.20
2018-05-03T11:22:26.768Z,16.40
2018-05-03T11:24:54.350Z,16.10
2018-05-03T11:27:22.686Z,16.20
2018-05-03T11:29:51.041Z,16.30
2018-05-03T11:32:18.621Z,16.30
2018-05-03T11:34:47.177Z,16.40
2018-05-03T11:37:14.806Z,16.10
2018-05-03T11:39:43.166Z,16.40
2018-05-03T11:44:45.042Z,16.60
2018-05-03T11:47:13.282Z,16.60
2018-05-03T11:49:40.879Z,16.50
2018-05-03T11:52:08.449Z,16.40
2018-05-03T11:54:36.793Z,16.20
2018-05-03T11:57:05.125Z,16.00
2018-05-03T11:59:33.473Z,15.90
2018-05-03T12:02:02.256Z,15.90
2018-05-03T12:04:29.842Z,16.00
2018-05-03T12:06:57.468Z,15.90
2018-05-03T12:09:25.814Z,16.30
2018-05-03T12:11:54.191Z,16.30
2018-05-03T12:14:21.766Z,16.70
2018-05-03T12:16:50.122Z,16.80
2018-05-03T12:19:17.695Z,16.80
2018-05-03T12:21:45.277Z,16.90
2018-05-03T12:24:12.847Z,17.00
2018-05-03T12:26:40.425Z,17.20
2018-05-03T12:29:07.985Z,16.90
2018-05-03T12:31:35.570Z,16.70
2018-05-03T12:34:03.132Z,16.50
2018-05-03T12:36:30.729Z,16.50
2018-05-03T12:38:58.331Z,16.50
2018-05-03T12:41:25.905Z,16.70
2018-05-03T12:43:53.522Z,16.60
2018-05-03T12:46:21.113Z,16.60
2018-05-03T12:48:49.482Z,16.60
2018-05-03T12:51:17.139Z,16.50
2018-05-03T12:53:44.782Z,16.80
2018-05-03T12:56:12.345Z,16.80
2018-05-03T12:58:39.921Z,16.70
2018-05-03T13:01:07.485Z,16.60
2018-05-03T13:03:35.067Z,16.80
2018-05-03T13:06:02.630Z,16.80
2018-05-03T13:08:30.217Z,16.80
2018-05-03T13:10:57.789Z,16.80
2018-05-03T13:13:25.373Z,17.00
2018-05-03T13:15:52.944Z,17.00
2018-05-03T13:18:20.528Z,17.10
2018-05-03T13:20:48.894Z,17.20
2018-05-03T13:23:16.535Z,17.20
2018-05-03T13:25:44.243Z,17.30
2018-05-03T13:28:11.765Z,17.40
2018-05-03T13:30:39.345Z,16.90
2018-05-03T13:33:06.909Z,16.90
2018-05-03T13:35:34.493Z,16.90
2018-05-03T13:38:02.062Z,17.00
2018-05-03T13:40:29.649Z,17.30
2018-05-03T13:42:57.222Z,17.20
2018-05-03T13:45:24.797Z,17.20
2018-05-03T13:47:52.369Z,17.20
2018-05-03T13:50:20.746Z,17.00
2018-05-03T13:52:49.125Z,16.80
2018-05-03T13:55:16.787Z,16.80
2018-05-03T13:57:44.387Z,17.00
2018-05-03T14:00:11.974Z,17.00
2018-05-03T14:02:39.557Z,16.90
2018-05-03T14:05:07.120Z,17.10
2018-05-03T14:07:34.705Z,17.40
2018-05-03T14:10:02.270Z,17.80
2018-05-03T14:12:29.861Z,17.60
2018-05-03T14:14:57.431Z,17.70
2018-05-03T14:17:25.023Z,17.60
2018-05-03T14:19:53.396Z,17.50
2018-05-03T14:22:23.950Z,17.50
2018-05-03T14:24:52.322Z,18.00
2018-05-03T14:27:19.921Z,18.00
2018-05-03T14:29:48.454Z,17.60
2018-05-03T14:32:16.110Z,17.60
2018-05-03T14:34:43.710Z,17.80
2018-05-03T14:37:11.338Z,17.90
2018-05-03T14:39:39.666Z,17.90
2018-05-03T14:42:07.232Z,17.90
2018-05-03T14:44:34.818Z,17.70
2018-05-03T14:47:03.682Z,17.70
2018-05-03T14:49:32.038Z,17.70
2018-05-03T14:52:00.408Z,17.90
2018-05-03T14:54:28.630Z,17.80
2018-05-03T14:56:56.273Z,17.70
2018-05-03T14:59:23.885Z,17.60
2018-05-03T15:01:54.461Z,17.40
2018-05-03T15:04:22.319Z,17.40
2018-05-03T15:06:50.126Z,17.40
2018-05-03T15:09:17.932Z,17.30
2018-05-03T15:11:45.494Z,17.40
2018-05-03T15:14:13.081Z,17.40
2018-05-03T15:16:40.648Z,17.40
2018-05-03T15:19:08.233Z,17.40
2018-05-03T15:21:35.803Z,17.30
2018-05-03T15:24:03.413Z,17.20
2018-05-03T15:26:31.109Z,17.00
2018-05-03T15:28:58.885Z,16.90
2018-05-03T15:31:26.568Z,16.80
2018-05-03T15:33:54.227Z,17.00
2018-05-03T15:36:21.758Z,17.60
2018-05-03T15:38:49.318Z,18.30
2018-05-03T15:41:16.904Z,19.00
2018-05-03T15:43:44.465Z,19.00
2018-05-03T15:46:12.049Z,18.80
2018-05-03T15:48:40.401Z,18.30
2018-05-03T15:51:07.994Z,18.30
2018-05-03T15:53:35.573Z,17.90
2018-05-03T15:56:03.164Z,17.60
2018-05-03T15:58:31.513Z,17.10
2018-05-03T16:00:59.128Z,17.10
2018-05-03T16:03:27.483Z,16.80
2018-05-03T16:05:55.094Z,16.80
2018-05-03T16:08:23.427Z,16.70
2018-05-03T16:10:51.046Z,16.60
2018-05-03T16:13:18.609Z,16.70
2018-05-03T16:15:46.177Z,16.60
2018-05-03T16:18:13.759Z,16.60
2018-05-03T16:20:41.327Z,16.60
2018-05-03T16:23:08.913Z,16.70
2018-05-03T16:25:37.154Z,16.70
2018-05-03T16:28:04.753Z,16.60
2018-05-03T16:30:32.344Z,16.50
2018-05-03T16:32:59.945Z,16.40
2018-05-03T16:35:27.514Z,16.30
2018-05-03T16:37:55.129Z,16.30
2018-05-03T16:40:22.702Z,16.20
2018-05-03T16:42:50.281Z,16.10
2018-05-03T16:45:17.842Z,16.10
2018-05-03T16:47:45.421Z,16.10
2018-05-03T16:50:12.989Z,16.00
2018-05-03T16:52:40.580Z,16.00
2018-05-03T16:55:08.149Z,15.90
2018-05-03T16:57:35.729Z,15.90
2018-05-03T17:00:03.314Z,15.80
2018-05-03T17:02:31.702Z,15.70
2018-05-03T17:04:59.316Z,15.70
2018-05-03T17:07:26.933Z,15.70
2018-05-03T17:09:54.605Z,15.70
2018-05-03T17:12:22.174Z,15.70
2018-05-03T17:14:49.749Z,15.60
2018-05-03T17:17:17.309Z,15.60
2018-05-03T17:19:44.889Z,15.60
2018-05-03T17:22:12.453Z,15.60
2018-05-03T17:24:40.030Z,15.50
2018-05-03T17:27:07.598Z,15.50
2018-05-03T17:29:35.185Z,15.40
2018-05-03T17:32:02.803Z,15.30
2018-05-03T17:34:30.397Z,15.40
2018-05-03T17:36:58.014Z,15.30
2018-05-03T17:39:25.728Z,15.20
2018-05-03T17:41:53.315Z,15.20
2018-05-03T17:44:20.916Z,15.30
2018-05-03T17:46:49.483Z,15.10
2018-05-03T17:49:17.081Z,15.10
2018-05-03T17:51:44.650Z,15.10
2018-05-03T17:54:12.214Z,15.10
2018-05-03T17:56:39.797Z,15.10
2018-05-03T17:59:07.353Z,15.00
2018-05-03T18:01:34.945Z,15.00
2018-05-03T18:04:02.528Z,15.00
2018-05-03T18:06:30.162Z,14.90
2018-05-03T18:08:57.783Z,14.90
2018-05-03T18:11:26.168Z,14.80
2018-05-03T18:13:53.746Z,14.80
2018-05-03T18:16:21.380Z,14.80
2018-05-03T18:18:48.925Z,14.80
2018-05-03T18:21:16.515Z,14.70
2018-05-03T18:23:44.073Z,14.70
2018-05-03T18:26:11.707Z,14.70
2018-05-03T18:28:39.237Z,14.70
2018-05-03T18:31:06.849Z,14.60
2018-05-03T18:33:34.417Z,14.60
2018-05-03T18:36:02.002Z,14.60
2018-05-03T18:38:29.605Z,14.60
2018-05-03T18:40:57.963Z,14.50
2018-05-03T18:43:25.578Z,14.50
2018-05-03T18:45:53.158Z,14.50
2018-05-03T18:48:20.737Z,14.40
2018-05-03T18:50:48.302Z,14.40
2018-05-03T18:53:15.886Z,14.40
2018-05-03T18:55:43.441Z,14.30
2018-05-03T18:58:11.029Z,14.30
2018-05-03T19:00:38.605Z,14.40
2018-05-03T19:03:06.189Z,14.40
2018-05-03T19:05:35.815Z,14.30
2018-05-03T19:08:03.438Z,14.30
2018-05-03T19:10:31.022Z,14.40
2018-05-03T19:12:58.660Z,14.30
2018-05-03T19:15:27.073Z,14.30
2018-05-03T19:17:54.678Z,14.30
2018-05-03T19:20:22.273Z,14.30
2018-05-03T19:22:49.865Z,14.30
2018-05-03T19:25:17.456Z,14.30
2018-05-03T19:27:45.792Z,14.30
2018-05-03T19:30:13.377Z,14.30
2018-05-03T19:32:40.950Z,14.30
2018-05-03T19:35:08.559Z,14.40
2018-05-03T19:37:36.974Z,14.40
2018-05-03T19:40:04.601Z,14.30
2018-05-03T19:42:32.200Z,14.30
2018-05-03T19:45:00.557Z,14.30
2018-05-03T19:47:28.138Z,14.30
2018-05-03T19:49:55.708Z,14.30
2018-05-03T19:52:23.276Z,14.30
2018-05-03T19:54:50.930Z,14.40
2018-05-03T19:57:20.228Z,14.30
2018-05-03T19:59:47.799Z,14.40
2018-05-03T20:02:15.378Z,14.30
2018-05-03T20:04:42.945Z,14.20
2018-05-03T20:07:10.541Z,14.20
2018-05-03T20:09:38.127Z,14.20
2018-05-03T20:12:05.722Z,14.20
2018-05-03T20:14:33.291Z,14.10
2018-05-03T20:17:01.658Z,14.10
2018-05-03T20:19:29.233Z,14.10
2018-05-03T20:21:56.822Z,14.10
2018-05-03T20:24:25.010Z,14.00
2018-05-03T20:26:52.594Z,14.00
2018-05-03T20:29:20.191Z,13.90
2018-05-03T20:31:48.981Z,13.80
2018-05-03T20:34:17.321Z,13.80
2018-05-03T20:36:44.917Z,13.80
2018-05-03T20:39:12.506Z,13.80
2018-05-03T20:41:40.871Z,13.80
2018-05-03T20:44:08.442Z,13.80
2018-05-03T20:46:36.006Z,13.80
2018-05-03T20:49:03.585Z,13.80
2018-05-03T20:51:31.149Z,13.80
2018-05-03T20:53:59.503Z,13.90
2018-05-03T20:56:27.120Z,13.80
2018-05-03T20:58:54.682Z,13.90
2018-05-03T21:01:22.266Z,13.90
2018-05-03T21:03:50.846Z,14.00
2018-05-03T21:06:18.418Z,13.90
2018-05-03T21:08:46.007Z,14.00
2018-05-03T21:11:13.598Z,14.00
2018-05-03T21:13:41.983Z,14.00
2018-05-03T21:16:10.321Z,13.80
2018-05-03T21:18:37.905Z,13.80
2018-05-03T21:21:05.478Z,13.90
2018-05-03T21:23:33.062Z,13.80
2018-05-03T21:26:00.655Z,13.80
2018-05-03T21:28:28.265Z,13.80
2018-05-03T21:30:55.826Z,13.70
2018-05-03T21:33:25.134Z,13.60
2018-05-03T21:35:53.477Z,13.60
2018-05-03T21:38:21.082Z,13.60
2018-05-03T21:40:49.450Z,13.60
2018-05-03T21:43:17.041Z,13.50
2018-05-03T21:45:44.646Z,13.50
2018-05-03T21:48:12.240Z,13.50
2018-05-03T21:50:39.825Z,13.50
2018-05-03T21:53:07.390Z,13.40
2018-05-03T21:55:34.969Z,13.40
2018-05-03T21:58:02.530Z,13.40
2018-05-03T22:00:30.109Z,13.30
2018-05-03T22:02:57.675Z,13.30
2018-05-03T22:05:25.262Z,13.30
2018-05-03T22:07:52.822Z,13.30
2018-05-03T22:10:20.440Z,13.20
2018-05-03T22:12:48.018Z,13.20
2018-05-03T22:15:15.638Z,13.20
2018-05-03T22:17:43.262Z,13.10
2018-05-03T22:20:11.630Z,13.00
2018-05-03T22:22:39.225Z,13.00
2018-05-03T22:25:06.781Z,13.00
2018-05-03T22:27:34.367Z,13.00
2018-05-03T22:30:01.934Z,13.00
2018-05-03T22:32:29.517Z,13.00
2018-05-03T22:34:57.081Z,13.00
2018-05-03T22:37:24.665Z,13.00
2018-05-03T22:39:52.242Z,12.90
2018-05-03T22:42:20.602Z,12.90
2018-05-03T22:44:48.214Z,12.90
2018-05-03T22:47:15.850Z,12.90
2018-05-03T22:49:43.465Z,12.80
2018-05-03T22:52:11.891Z,12.80
2018-05-03T22:54:39.466Z,12.80
2018-05-03T22:57:07.037Z,12.80
2018-05-03T22:59:34.598Z,12.80
2018-05-03T23:02:02.190Z,12.80
2018-05-03T23:04:29.754Z,12.80
2018-05-03T23:06:57.319Z,12.70
2018-05-03T23:09:24.897Z,12.70
2018-05-03T23:11:52.459Z,12.70
2018-05-03T23:14:20.081Z,12.70
2018-05-03T23:16:47.653Z,12.60
2018-05-03T23:19:15.312Z,12.60
2018-05-03T23:21:42.926Z,12.60
2018-05-03T23:24:11.385Z,12.50
2018-05-03T23:26:38.946Z,12.50
2018-05-03T23:29:06.522Z,12.50
2018-05-03T23:31:34.849Z,12.40
2018-05-03T23:34:03.193Z,12.50
2018-05-03T23:36:30.749Z,12.40
2018-05-03T23:38:58.326Z,12.40
2018-05-03T23:41:25.886Z,12.30
2018-05-03T23:43:53.461Z,12.20
2018-05-03T23:46:21.013Z,12.20
2018-05-03T23:48:48.642Z,12.20
2018-05-03T23:51:16.290Z,12.10
2018-05-03T23:53:43.924Z,12.00
2018-05-03T23:56:12.507Z,12.10
2018-05-03T23:58:40.135Z,12.10
